createdAt,value
2022-09-23T00:02:38.335Z,2.20
2022-09-23T00:07:39.641Z,2.17
2022-09-23T00:12:41.058Z,2.30
2022-09-23T00:17:43.129Z,2.00
2022-09-23T00:22:45.220Z,2.30
2022-09-23T00:27:46.456Z,1.85
2022-09-23T00:32:47.697Z,2.03
2022-09-23T00:37:49.066Z,2.00
2022-09-23T00:42:51.948Z,1.90
2022-09-23T00:47:56.917Z,2.00
2022-09-23T00:53:01.055Z,2.00
2022-09-23T00:58:05.870Z,2.15
2022-09-23T01:03:07.353Z,2.00
2022-09-23T01:08:11.523Z,1.70
2022-09-23T01:13:25.184Z,1.50
2022-09-23T01:19:01.134Z,1.95
2022-09-23T01:24:33.587Z,2.00
2022-09-23T01:30:03.809Z,2.33
2022-09-23T01:35:05.222Z,1.60
2022-09-23T01:40:23.878Z,1.90
2022-09-23T01:45:41.301Z,2.85
2022-09-23T01:50:57.338Z,1.83
2022-09-23T01:56:04.509Z,1.77
2022-09-23T02:01:08.325Z,2.10
2022-09-23T02:06:20.918Z,2.20
2022-09-23T02:11:23.506Z,2.30
2022-09-23T02:16:26.860Z,2.00
2022-09-23T02:21:34.101Z,2.50
2022-09-23T02:26:41.419Z,2.22
2022-09-23T02:32:02.691Z,1.92
2022-09-23T02:37:19.013Z,2.95
2022-09-23T02:42:25.435Z,2.53
2022-09-23T02:47:31.229Z,2.25
2022-09-23T02:52:33.310Z,2.20
2022-09-23T02:57:34.912Z,2.30
2022-09-23T03:02:57.469Z,2.38
2022-09-23T03:08:25.707Z,2.33
2022-09-23T03:13:50.749Z,2.60
2022-09-23T03:19:17.354Z,3.15
2022-09-23T03:24:21.743Z,2.58
2022-09-23T03:29:23.477Z,2.75
2022-09-23T03:34:30.741Z,2.33
2022-09-23T03:39:43.256Z,2.78
2022-09-23T03:44:46.226Z,2.28
2022-09-23T03:49:49.534Z,2.42
2022-09-23T03:54:52.173Z,2.53
2022-09-23T03:59:53.721Z,2.05
2022-09-23T04:04:55.924Z,2.50
2022-09-23T04:09:57.165Z,2.28
2022-09-23T04:14:58.466Z,2.30
2022-09-23T04:19:59.762Z,1.92
2022-09-23T04:25:00.996Z,1.90
2022-09-23T04:30:02.233Z,2.60
2022-09-23T04:35:04.280Z,1.88
2022-09-23T04:40:06.258Z,2.50
2022-09-23T04:45:08.157Z,2.20
2022-09-23T04:50:09.698Z,2.55
2022-09-23T04:55:11.429Z,2.55
2022-09-23T05:00:13.758Z,2.60
2022-09-23T05:05:20.060Z,2.47
2022-09-23T05:10:21.660Z,2.83
2022-09-23T05:15:22.935Z,3.30
2022-09-23T05:20:24.212Z,3.65
2022-09-23T05:25:25.489Z,2.83
2022-09-23T05:30:26.791Z,2.90
2022-09-23T05:35:28.238Z,2.67
2022-09-23T05:40:29.630Z,2.65
2022-09-23T05:45:32.006Z,3.70
2022-09-23T05:50:33.326Z,3.65
2022-09-23T05:55:34.785Z,2.97
2022-09-23T06:00:36.069Z,2.63
2022-09-23T06:05:37.357Z,2.88
2022-09-23T06:10:43.840Z,2.33
2022-09-23T06:15:45.268Z,2.90
2022-09-23T06:20:46.592Z,2.75
2022-09-23T06:25:48.301Z,2.88
2022-09-23T06:30:50.177Z,3.60
2022-09-23T06:35:59.964Z,3.00
2022-09-23T06:41:03.062Z,3.03
2022-09-23T06:46:05.938Z,3.70
2022-09-23T06:51:07.312Z,3.80
2022-09-23T06:56:11.317Z,3.20
2022-09-23T07:01:18.106Z,3.67
2022-09-23T07:06:19.898Z,3.53
2022-09-23T07:11:22.486Z,3.13
2022-09-23T07:16:24.099Z,3.30
2022-09-23T07:21:25.888Z,3.50
2022-09-23T07:26:27.203Z,3.80
2022-09-23T07:31:38.743Z,3.40
2022-09-23T07:36:41.660Z,3.47
2022-09-23T07:41:44.241Z,3.50
2022-09-23T07:46:45.651Z,3.78
2022-09-23T07:51:46.958Z,3.45
2022-09-23T07:56:48.230Z,3.67
2022-09-23T08:01:52.548Z,3.90
2022-09-23T08:06:57.476Z,4.30
2022-09-23T08:11:59.132Z,3.95
2022-09-23T08:17:00.413Z,4.20
2022-09-23T08:22:01.757Z,4.22
2022-09-23T08:27:03.389Z,4.50
2022-09-23T08:32:04.852Z,4.65
2022-09-23T08:37:11.117Z,3.95
2022-09-23T08:42:18.816Z,4.80
2022-09-23T08:47:32.089Z,4.10
2022-09-23T08:52:42.919Z,4.35
2022-09-23T08:58:23.902Z,4.00
2022-09-23T09:03:27.553Z,4.03
2022-09-23T09:08:38.762Z,3.88
2022-09-23T09:14:21.922Z,4.65
2022-09-23T09:19:52.454Z,3.85
2022-09-23T09:24:59.201Z,3.80
2022-09-23T09:30:01.209Z,3.28
2022-09-23T09:35:16.344Z,3.65
2022-09-23T09:40:17.875Z,3.00
2022-09-23T09:45:57.477Z,3.10
2022-09-23T09:51:18.668Z,3.13
2022-09-23T09:56:27.162Z,2.97
2022-09-23T10:01:33.522Z,2.78
2022-09-23T10:06:36.071Z,2.35
2022-09-23T10:11:38.688Z,2.15
2022-09-23T10:16:41.996Z,2.45
2022-09-23T10:21:43.510Z,2.20
2022-09-23T10:26:55.001Z,2.30
2022-09-23T10:32:21.638Z,2.30
2022-09-23T10:37:31.119Z,1.90
2022-09-23T10:43:09.423Z,2.00
2022-09-23T10:48:40.639Z,1.42
2022-09-23T10:54:03.577Z,1.27
2022-09-23T10:59:11.898Z,1.25
2022-09-23T11:04:36.949Z,1.70
2022-09-23T11:10:11.368Z,1.75
2022-09-23T11:15:54.433Z,1.23
2022-09-23T11:21:23.797Z,1.50
2022-09-23T11:26:53.497Z,1.80
2022-09-23T11:32:06.942Z,1.65
2022-09-23T11:37:14.010Z,1.48
2022-09-23T11:42:39.651Z,1.40
2022-09-23T11:47:48.618Z,1.35
2022-09-23T11:52:58.624Z,1.70
2022-09-23T11:58:23.121Z,1.92
2022-09-23T12:03:44.750Z,1.02
2022-09-23T12:08:47.125Z,1.17
2022-09-23T12:14:21.461Z,1.33
2022-09-23T12:19:28.406Z,1.00
2022-09-23T12:24:47.420Z,0.98
2022-09-23T12:29:53.815Z,1.10
2022-09-23T12:34:55.452Z,0.90
2022-09-23T12:40:02.205Z,1.42
2022-09-23T12:45:38.515Z,0.98
2022-09-23T12:50:50.771Z,0.80
2022-09-23T12:55:54.159Z,0.80
2022-09-23T13:01:28.808Z,0.90
2022-09-23T13:06:38.981Z,0.90
2022-09-23T13:11:45.175Z,0.63
2022-09-23T13:16:47.417Z,0.70
2022-09-23T13:21:49.441Z,0.82
2022-09-23T13:26:53.920Z,1.00
2022-09-23T13:31:57.750Z,1.55
2022-09-23T13:37:13.648Z,0.77
2022-09-23T13:42:28.974Z,0.90
2022-09-23T13:47:31.298Z,0.95
2022-09-23T13:52:33.293Z,1.00
2022-09-23T13:57:35.163Z,1.33
2022-09-23T14:02:42.898Z,1.38
2022-09-23T14:07:44.673Z,1.20
2022-09-23T14:12:48.639Z,0.90
2022-09-23T14:17:53.502Z,0.88
2022-09-23T14:23:13.935Z,1.13
2022-09-23T14:28:18.150Z,1.08
2022-09-23T14:33:26.530Z,1.55
2022-09-23T14:38:47.960Z,1.10
2022-09-23T14:43:59.466Z,1.63
2022-09-23T14:49:11.838Z,1.42
2022-09-23T14:54:34.502Z,1.10
2022-09-23T14:59:36.954Z,1.63
2022-09-23T15:04:38.217Z,1.55
2022-09-23T15:09:41.636Z,1.30
2022-09-23T15:14:49.291Z,1.40
2022-09-23T15:19:55.092Z,1.55
2022-09-23T15:25:16.111Z,1.33
2022-09-23T15:30:19.292Z,1.45
2022-09-23T15:35:25.498Z,1.77
2022-09-23T15:40:32.938Z,1.42
2022-09-23T15:45:40.083Z,1.45
2022-09-23T15:50:42.658Z,1.90
2022-09-23T15:55:45.155Z,1.50
2022-09-23T16:00:55.965Z,1.47
2022-09-23T16:06:02.890Z,1.55
2022-09-23T16:11:06.001Z,1.80
2022-09-23T16:16:07.891Z,1.77
2022-09-23T16:21:14.153Z,1.98
2022-09-23T16:26:22.202Z,1.85
2022-09-23T16:31:31.202Z,2.05
2022-09-23T16:36:35.730Z,1.80
2022-09-23T16:41:37.338Z,2.20
2022-09-23T16:46:40.314Z,2.22
2022-09-23T16:51:41.806Z,3.00
2022-09-23T16:56:50.329Z,2.20
2022-09-23T17:02:30.017Z,1.70
2022-09-23T17:07:34.155Z,1.95
2022-09-23T17:12:37.839Z,2.42
2022-09-23T17:17:39.129Z,2.70
2022-09-23T17:22:44.998Z,2.75
2022-09-23T17:27:51.110Z,2.75
2022-09-23T17:32:57.357Z,3.30
2022-09-23T17:43:13.825Z,3.22
2022-09-23T17:48:17.196Z,3.53
2022-09-23T17:53:18.422Z,4.18
2022-09-23T17:58:19.789Z,5.82
2022-09-23T18:03:21.393Z,4.15
2022-09-23T18:08:22.680Z,4.38
2022-09-23T18:13:23.957Z,4.43
2022-09-23T18:18:25.203Z,4.97
2022-09-23T18:23:28.542Z,5.43
2022-09-23T18:28:34.977Z,4.82
2022-09-23T18:33:36.689Z,4.70
2022-09-23T18:38:45.202Z,5.57
2022-09-23T18:43:49.335Z,5.53
2022-09-23T18:49:21.327Z,5.82
2022-09-23T18:54:33.826Z,4.88
2022-09-23T18:59:35.072Z,6.78
2022-09-23T19:04:36.336Z,8.57
2022-09-23T19:09:37.771Z,7.32
2022-09-23T19:14:39.023Z,6.53
2022-09-23T19:19:40.875Z,5.70
2022-09-23T19:24:42.158Z,7.07
2022-09-23T19:29:43.449Z,7.43
2022-09-23T19:34:46.210Z,8.32
2022-09-23T19:39:47.534Z,7.97
2022-09-23T19:44:50.155Z,8.27
2022-09-23T19:49:51.425Z,8.55
2022-09-23T19:54:52.793Z,8.25
2022-09-23T19:59:54.416Z,8.45
2022-09-23T20:04:55.681Z,7.20
2022-09-23T20:09:57.621Z,11.82
2022-09-23T20:15:00.301Z,9.95
2022-09-23T20:20:01.892Z,8.13
2022-09-23T20:25:04.103Z,9.15
2022-09-23T20:30:07.252Z,7.47
2022-09-23T20:35:08.708Z,7.77
2022-09-23T20:40:10.177Z,8.35
2022-09-23T20:45:11.489Z,6.88
2022-09-23T20:50:14.243Z,8.23
2022-09-23T20:55:16.058Z,7.63
2022-09-23T21:00:18.254Z,6.53
2022-09-23T21:05:19.502Z,7.70
2022-09-23T21:10:22.688Z,8.50
2022-09-23T21:15:24.007Z,7.47
2022-09-23T21:20:25.279Z,7.20
2022-09-23T21:25:28.281Z,7.03
2022-09-23T21:30:30.189Z,6.38
2022-09-23T21:35:31.481Z,6.85
2022-09-23T21:40:51.639Z,7.32
2022-09-23T21:46:02.166Z,7.05
2022-09-23T21:51:27.472Z,8.02
2022-09-23T21:56:31.207Z,7.65
2022-09-23T22:01:35.458Z,7.78
2022-09-23T22:06:38.391Z,7.85
2022-09-23T22:11:59.350Z,7.60
2022-09-23T22:17:02.475Z,7.28
2022-09-23T22:22:13.365Z,7.40
2022-09-23T22:27:17.391Z,6.45
2022-09-23T22:32:40.389Z,7.28
2022-09-23T22:37:41.754Z,7.28
2022-09-23T22:42:44.605Z,7.75
2022-09-23T22:47:46.129Z,7.00
2022-09-23T22:52:47.411Z,7.35
2022-09-23T22:57:50.386Z,6.95
2022-09-23T23:02:51.621Z,7.85
2022-09-23T23:07:53.120Z,7.65
2022-09-23T23:12:54.385Z,7.30
2022-09-23T23:17:57.267Z,7.10
2022-09-23T23:23:01.898Z,7.32
2022-09-23T23:28:05.522Z,7.32
2022-09-23T23:33:06.818Z,8.23
2022-09-23T23:38:10.874Z,8.20
2022-09-23T23:43:12.226Z,7.72
2022-09-23T23:48:13.793Z,8.00
2022-09-23T23:53:15.448Z,8.25
2022-09-23T23:58:17.922Z,7.90
